sensor_id;sensor_type;location;lat;lon;timestamp;pressure;altitude;pressure_sealevel;temperature;humidity
74680;BME280;63211;48.548;2.704;2023-08-31T00:00:11;100448.25;;;21.16;57.88
74680;BME280;63211;48.548;2.704;2023-08-31T00:02:39;100452.91;;;21.15;57.90
74680;BME280;63211;48.548;2.704;2023-08-31T00:05:08;100451.25;;;21.14;58.11
74680;BME280;63211;48.548;2.704;2023-08-31T00:07:34;100451.75;;;21.11;57.99
74680;BME280;63211;48.548;2.704;2023-08-31T00:10:01;100462.94;;;21.10;58.11
74680;BME280;63211;48.548;2.704;2023-08-31T00:12:34;100461.88;;;21.11;58.03
74680;BME280;63211;48.548;2.704;2023-08-31T00:15:01;100459.13;;;21.11;57.97
74680;BME280;63211;48.548;2.704;2023-08-31T00:17:29;100459.63;;;21.08;58.12
74680;BME280;63211;48.548;2.704;2023-08-31T00:19:56;100475.47;;;21.06;58.12
74680;BME280;63211;48.548;2.704;2023-08-31T00:22:24;100475.72;;;21.04;58.31
74680;BME280;63211;48.548;2.704;2023-08-31T00:24:51;100474.06;;;21.03;58.22
74680;BME280;63211;48.548;2.704;2023-08-31T00:27:18;100480.84;;;21.01;58.22
74680;BME280;63211;48.548;2.704;2023-08-31T00:29:46;100481.69;;;21.01;58.26
74680;BME280;63211;48.548;2.704;2023-08-31T00:32:14;100487.41;;;21.00;58.13
74680;BME280;63211;48.548;2.704;2023-08-31T00:34:41;100472.88;;;20.99;57.98
74680;BME280;63211;48.548;2.704;2023-08-31T00:37:07;100470.97;;;21.00;58.25
74680;BME280;63211;48.548;2.704;2023-08-31T00:39:36;100471.25;;;20.98;58.19
74680;BME280;63211;48.548;2.704;2023-08-31T00:42:03;100469.59;;;20.97;58.27
74680;BME280;63211;48.548;2.704;2023-08-31T00:44:29;100463.28;;;20.97;58.17
74680;BME280;63211;48.548;2.704;2023-08-31T00:46:56;100461.03;;;20.93;58.33
74680;BME280;63211;48.548;2.704;2023-08-31T00:49:22;100468.44;;;20.93;58.50
74680;BME280;63211;48.548;2.704;2023-08-31T00:51:49;100468.19;;;20.95;58.20
74680;BME280;63211;48.548;2.704;2023-08-31T00:54:17;100472.00;;;20.93;58.60
74680;BME280;63211;48.548;2.704;2023-08-31T00:56:45;100475.56;;;20.94;58.28
74680;BME280;63211;48.548;2.704;2023-08-31T00:59:11;100471.41;;;20.91;58.35
74680;BME280;63211;48.548;2.704;2023-08-31T01:01:43;100451.91;;;20.88;58.12
74680;BME280;63211;48.548;2.704;2023-08-31T01:04:19;100446.69;;;20.86;58.18
74680;BME280;63211;48.548;2.704;2023-08-31T01:06:54;100454.16;;;20.91;58.26
74680;BME280;63211;48.548;2.704;2023-08-31T01:09:32;100459.88;;;20.89;58.17
74680;BME280;63211;48.548;2.704;2023-08-31T01:12:06;100465.94;;;20.91;58.24
74680;BME280;63211;48.548;2.704;2023-08-31T01:14:39;100466.19;;;20.90;58.48
74680;BME280;63211;48.548;2.704;2023-08-31T01:17:08;100466.09;;;20.85;58.35
74680;BME280;63211;48.548;2.704;2023-08-31T01:19:44;100462.59;;;20.89;58.35
74680;BME280;63211;48.548;2.704;2023-08-31T01:22:16;100458.47;;;20.87;58.46
74680;BME280;63211;48.548;2.704;2023-08-31T01:24:45;100449.31;;;20.81;58.21
74680;BME280;63211;48.548;2.704;2023-08-31T01:27:12;100453.22;;;20.85;58.22
74680;BME280;63211;48.548;2.704;2023-08-31T01:29:39;100454.91;;;20.86;58.17
74680;BME280;63211;48.548;2.704;2023-08-31T01:32:06;100455.97;;;20.85;58.34
74680;BME280;63211;48.548;2.704;2023-08-31T01:34:33;100455.38;;;20.83;58.21
74680;BME280;63211;48.548;2.704;2023-08-31T01:37:05;100457.28;;;20.83;58.12
74680;BME280;63211;48.548;2.704;2023-08-31T01:39:38;100466.56;;;20.82;58.46
74680;BME280;63211;48.548;2.704;2023-08-31T01:42:11;100462.41;;;20.79;58.18
74680;BME280;63211;48.548;2.704;2023-08-31T01:44:39;100480.25;;;20.82;58.43
74680;BME280;63211;48.548;2.704;2023-08-31T01:47:06;100475.84;;;20.81;58.46
74680;BME280;63211;48.548;2.704;2023-08-31T01:49:37;100470.06;;;20.77;58.44
74680;BME280;63211;48.548;2.704;2023-08-31T01:52:04;100444.91;;;20.64;58.18
74680;BME280;63211;48.548;2.704;2023-08-31T01:54:31;100472.53;;;20.79;58.35
74680;BME280;63211;48.548;2.704;2023-08-31T01:56:58;100465.09;;;20.74;58.29
74680;BME280;63211;48.548;2.704;2023-08-31T01:59:26;100473.38;;;20.79;58.43
74680;BME280;63211;48.548;2.704;2023-08-31T02:01:53;100478.00;;;20.79;58.37
74680;BME280;63211;48.548;2.704;2023-08-31T02:04:19;100468.16;;;20.78;58.54
74680;BME280;63211;48.548;2.704;2023-08-31T02:06:46;100467.06;;;20.79;58.54
74680;BME280;63211;48.548;2.704;2023-08-31T02:09:13;100470.91;;;20.78;58.50
74680;BME280;63211;48.548;2.704;2023-08-31T02:11:40;100467.59;;;20.76;58.49
74680;BME280;63211;48.548;2.704;2023-08-31T02:14:06;100465.69;;;20.76;58.44
74680;BME280;63211;48.548;2.704;2023-08-31T02:16:35;100467.34;;;20.77;58.46
74680;BME280;63211;48.548;2.704;2023-08-31T02:19:01;100468.41;;;20.76;58.53
74680;BME280;63211;48.548;2.704;2023-08-31T02:21:28;100466.75;;;20.75;58.49
74680;BME280;63211;48.548;2.704;2023-08-31T02:23:54;100467.59;;;20.76;58.41
74680;BME280;63211;48.548;2.704;2023-08-31T02:26:21;100475.78;;;20.76;58.42
74680;BME280;63211;48.548;2.704;2023-08-31T02:28:48;100462.25;;;20.69;58.56
74680;BME280;63211;48.548;2.704;2023-08-31T02:31:17;100473.31;;;20.74;58.49
74680;BME280;63211;48.548;2.704;2023-08-31T02:33:45;100468.91;;;20.73;58.52
74680;BME280;63211;48.548;2.704;2023-08-31T02:36:11;100473.53;;;20.73;58.54
74680;BME280;63211;48.548;2.704;2023-08-31T02:38:38;100464.50;;;20.72;58.36
74680;BME280;63211;48.548;2.704;2023-08-31T02:41:05;100467.25;;;20.72;58.32
74680;BME280;63211;48.548;2.704;2023-08-31T02:43:31;100477.13;;;20.73;58.74
74680;BME280;63211;48.548;2.704;2023-08-31T02:46:01;100473.53;;;20.73;58.69
74680;BME280;63211;48.548;2.704;2023-08-31T02:48:28;100472.97;;;20.71;58.68
74680;BME280;63211;48.548;2.704;2023-08-31T02:50:57;100463.91;;;20.70;58.62
74680;BME280;63211;48.548;2.704;2023-08-31T02:53:26;100474.88;;;20.70;58.63
74680;BME280;63211;48.548;2.704;2023-08-31T02:55:52;100463.91;;;20.70;58.54
74680;BME280;63211;48.548;2.704;2023-08-31T02:58:19;100461.19;;;20.70;58.87
74680;BME280;63211;48.548;2.704;2023-08-31T03:00:46;100468.56;;;20.70;58.48
74680;BME280;63211;48.548;2.704;2023-08-31T03:03:13;100469.63;;;20.69;58.71
74680;BME280;63211;48.548;2.704;2023-08-31T03:05:40;100465.81;;;20.70;58.64
74680;BME280;63211;48.548;2.704;2023-08-31T03:08:08;100467.50;;;20.71;58.72
74680;BME280;63211;48.548;2.704;2023-08-31T03:10:35;100468.13;;;20.61;58.43
74680;BME280;63211;48.548;2.704;2023-08-31T03:13:03;100477.00;;;20.68;58.22
74680;BME280;63211;48.548;2.704;2023-08-31T03:15:31;100478.91;;;20.68;58.50
74680;BME280;63211;48.548;2.704;2023-08-31T03:17:59;100467.88;;;20.63;58.45
74680;BME280;63211;48.548;2.704;2023-08-31T03:20:25;100467.16;;;20.67;58.59
74680;BME280;63211;48.548;2.704;2023-08-31T03:22:52;100469.63;;;20.69;58.64
74680;BME280;63211;48.548;2.704;2023-08-31T03:25:20;100469.88;;;20.67;58.55
74680;BME280;63211;48.548;2.704;2023-08-31T03:27:46;100466.31;;;20.67;58.71
74680;BME280;63211;48.548;2.704;2023-08-31T03:30:13;100467.38;;;20.66;58.64
74680;BME280;63211;48.548;2.704;2023-08-31T03:32:40;100463.25;;;20.63;58.69
74680;BME280;63211;48.548;2.704;2023-08-31T03:35:08;100461.34;;;20.64;58.72
74680;BME280;63211;48.548;2.704;2023-08-31T03:37:35;100461.34;;;20.64;58.67
74680;BME280;63211;48.548;2.704;2023-08-31T03:40:01;100461.91;;;20.66;58.74
74680;BME280;63211;48.548;2.704;2023-08-31T03:42:31;100467.63;;;20.64;58.56
74680;BME280;63211;48.548;2.704;2023-08-31T03:44:57;100462.41;;;20.63;58.65
74680;BME280;63211;48.548;2.704;2023-08-31T03:47:24;100455.03;;;20.63;58.61
74680;BME280;63211;48.548;2.704;2023-08-31T03:49:50;100453.13;;;20.64;58.69
74680;BME280;63211;48.548;2.704;2023-08-31T03:52:17;100458.59;;;20.64;58.64
74680;BME280;63211;48.548;2.704;2023-08-31T03:54:44;100452.53;;;20.62;58.55
74680;BME280;63211;48.548;2.704;2023-08-31T03:57:11;100456.09;;;20.62;58.68
74680;BME280;63211;48.548;2.704;2023-08-31T03:59:39;100450.06;;;20.60;58.53
74680;BME280;63211;48.548;2.704;2023-08-31T04:02:06;100463.47;;;20.62;58.69
74680;BME280;63211;48.548;2.704;2023-08-31T04:04:32;100462.66;;;20.61;58.67
74680;BME280;63211;48.548;2.704;2023-08-31T04:06:59;100458.50;;;20.58;58.73
74680;BME280;63211;48.548;2.704;2023-08-31T04:09:26;100459.09;;;20.61;58.75
74680;BME280;63211;48.548;2.704;2023-08-31T04:11:52;100469.78;;;20.62;58.58
74680;BME280;63211;48.548;2.704;2023-08-31T04:14:19;100466.47;;;20.60;58.78
74680;BME280;63211;48.548;2.704;2023-08-31T04:16:47;100463.72;;;20.60;58.72
74680;BME280;63211;48.548;2.704;2023-08-31T04:19:15;100465.63;;;20.59;58.73
74680;BME280;63211;48.548;2.704;2023-08-31T04:21:42;100470.28;;;20.59;58.79
74680;BME280;63211;48.548;2.704;2023-08-31T04:24:09;100464.38;;;20.50;58.63
74680;BME280;63211;48.548;2.704;2023-08-31T04:26:35;100466.47;;;20.60;58.81
74680;BME280;63211;48.548;2.704;2023-08-31T04:29:02;100469.44;;;20.58;58.55
74680;BME280;63211;48.548;2.704;2023-08-31T04:31:30;100471.34;;;20.58;58.63
74680;BME280;63211;48.548;2.704;2023-08-31T04:33:59;100467.22;;;20.55;58.72
74680;BME280;63211;48.548;2.704;2023-08-31T04:36:25;100475.19;;;20.57;58.81
74680;BME280;63211;48.548;2.704;2023-08-31T04:38:52;100475.19;;;20.57;58.82
74680;BME280;63211;48.548;2.704;2023-08-31T04:41:18;100483.13;;;20.58;58.80
74680;BME280;63211;48.548;2.704;2023-08-31T04:43:45;100479.56;;;20.58;58.64
74680;BME280;63211;48.548;2.704;2023-08-31T04:46:13;100474.09;;;20.58;58.73
74680;BME280;63211;48.548;2.704;2023-08-31T04:48:39;100489.69;;;20.57;58.88
74680;BME280;63211;48.548;2.704;2023-08-31T04:51:27;100484.47;;;20.56;58.82
74680;BME280;63211;48.548;2.704;2023-08-31T04:53:53;100481.72;;;20.56;58.86
74680;BME280;63211;48.548;2.704;2023-08-31T04:56:20;100483.63;;;20.55;58.92
74680;BME280;63211;48.548;2.704;2023-08-31T04:58:47;100482.81;;;20.55;58.81
74680;BME280;63211;48.548;2.704;2023-08-31T05:01:13;100487.19;;;20.56;58.82
74680;BME280;63211;48.548;2.704;2023-08-31T05:03:41;100491.84;;;20.55;58.83
74680;BME280;63211;48.548;2.704;2023-08-31T05:06:09;100491.59;;;20.57;58.75
74680;BME280;63211;48.548;2.704;2023-08-31T05:08:35;100486.84;;;20.52;58.68
74680;BME280;63211;48.548;2.704;2023-08-31T05:11:02;100492.09;;;20.54;58.83
74680;BME280;63211;48.548;2.704;2023-08-31T05:13:29;100481.28;;;20.47;58.61
74680;BME280;63211;48.548;2.704;2023-08-31T05:15:55;100489.94;;;20.56;58.81
74680;BME280;63211;48.548;2.704;2023-08-31T05:18:22;100491.25;;;20.53;58.93
74680;BME280;63211;48.548;2.704;2023-08-31T05:20:48;100489.34;;;20.54;58.96
74680;BME280;63211;48.548;2.704;2023-08-31T05:23:16;100490.19;;;20.54;58.88
74680;BME280;63211;48.548;2.704;2023-08-31T05:25:43;100495.66;;;20.54;58.78
74680;BME280;63211;48.548;2.704;2023-08-31T05:28:10;100492.66;;;20.56;58.94
74680;BME280;63211;48.548;2.704;2023-08-31T05:30:47;100494.06;;;20.58;58.90
74680;BME280;63211;48.548;2.704;2023-08-31T05:33:14;100493.56;;;20.62;58.98
74680;BME280;63211;48.548;2.704;2023-08-31T05:35:40;100499.63;;;20.64;58.96
74680;BME280;63211;48.548;2.704;2023-08-31T05:38:07;100494.16;;;20.64;59.08
74680;BME280;63211;48.548;2.704;2023-08-31T05:40:35;100502.72;;;20.67;58.88
74680;BME280;63211;48.548;2.704;2023-08-31T05:43:02;100514.47;;;20.68;58.89
74680;BME280;63211;48.548;2.704;2023-08-31T05:45:31;100509.25;;;20.66;59.04
74680;BME280;63211;48.548;2.704;2023-08-31T05:47:58;100509.75;;;20.63;59.02
74680;BME280;63211;48.548;2.704;2023-08-31T05:50:25;100518.28;;;20.67;58.84
74680;BME280;63211;48.548;2.704;2023-08-31T05:52:52;100525.06;;;20.64;59.34
74680;BME280;63211;48.548;2.704;2023-08-31T05:55:19;100534.34;;;20.63;59.08
74680;BME280;63211;48.548;2.704;2023-08-31T05:57:47;100539.34;;;20.66;59.14
74680;BME280;63211;48.548;2.704;2023-08-31T06:00:13;100541.00;;;20.67;59.25
74680;BME280;63211;48.548;2.704;2023-08-31T06:02:41;100542.31;;;20.65;59.21
74680;BME280;63211;48.548;2.704;2023-08-31T06:05:09;100541.50;;;20.64;59.32
74680;BME280;63211;48.548;2.704;2023-08-31T06:07:37;100542.09;;;20.66;59.04
74680;BME280;63211;48.548;2.704;2023-08-31T06:10:05;100536.84;;;20.65;59.11
74680;BME280;63211;48.548;2.704;2023-08-31T06:12:32;100540.91;;;20.62;59.21
74680;BME280;63211;48.548;2.704;2023-08-31T06:15:00;100531.28;;;20.59;58.78
74680;BME280;63211;48.548;2.704;2023-08-31T06:17:26;100540.19;;;20.67;59.31
74680;BME280;63211;48.548;2.704;2023-08-31T06:19:53;100548.03;;;20.63;59.13
74680;BME280;63211;48.548;2.704;2023-08-31T06:22:20;100541.97;;;20.61;59.25
74680;BME280;63211;48.548;2.704;2023-08-31T06:24:48;100544.13;;;20.59;59.18
74680;BME280;63211;48.548;2.704;2023-08-31T06:27:14;100550.78;;;20.63;58.85
74680;BME280;63211;48.548;2.704;2023-08-31T06:29:43;100546.97;;;20.64;58.89
74680;BME280;63211;48.548;2.704;2023-08-31T06:32:11;100549.34;;;20.61;58.92
74680;BME280;63211;48.548;2.704;2023-08-31T06:34:37;100545.31;;;20.63;59.09
74680;BME280;63211;48.548;2.704;2023-08-31T06:37:04;100538.41;;;20.61;58.99
74680;BME280;63211;48.548;2.704;2023-08-31T06:39:30;100543.75;;;20.67;58.75
74680;BME280;63211;48.548;2.704;2023-08-31T06:41:58;100539.09;;;20.68;58.84
74680;BME280;63211;48.548;2.704;2023-08-31T06:44:24;100546.25;;;20.69;58.83
74680;BME280;63211;48.548;2.704;2023-08-31T06:46:51;100544.34;;;20.69;58.97
74680;BME280;63211;48.548;2.704;2023-08-31T06:49:19;100523.59;;;20.56;58.83
74680;BME280;63211;48.548;2.704;2023-08-31T06:51:45;100532.22;;;20.65;58.75
74680;BME280;63211;48.548;2.704;2023-08-31T06:54:12;100537.69;;;20.65;58.79
74680;BME280;63211;48.548;2.704;2023-08-31T06:56:39;100518.25;;;20.50;58.75
74680;BME280;63211;48.548;2.704;2023-08-31T06:59:05;100535.19;;;20.64;58.81
74680;BME280;63211;48.548;2.704;2023-08-31T07:01:32;100538.03;;;20.69;58.88
74680;BME280;63211;48.548;2.704;2023-08-31T07:03:58;100552.19;;;20.66;58.73
74680;BME280;63211;48.548;2.704;2023-08-31T07:06:26;100535.44;;;20.62;58.75
74680;BME280;63211;48.548;2.704;2023-08-31T07:08:54;100545.41;;;20.68;58.80
74680;BME280;63211;48.548;2.704;2023-08-31T07:11:20;100539.94;;;20.68;58.90
74680;BME280;63211;48.548;2.704;2023-08-31T07:13:47;100547.16;;;20.74;58.93
74680;BME280;63211;48.548;2.704;2023-08-31T07:16:14;100551.09;;;20.78;58.45
74680;BME280;63211;48.548;2.704;2023-08-31T07:18:40;100547.69;;;20.88;58.60
74680;BME280;63211;48.548;2.704;2023-08-31T07:21:07;100545.09;;;20.81;58.72
74680;BME280;63211;48.548;2.704;2023-08-31T07:23:35;100553.81;;;20.78;59.05
74680;BME280;63211;48.548;2.704;2023-08-31T07:26:01;100557.03;;;20.75;58.97
74680;BME280;63211;48.548;2.704;2023-08-31T07:28:30;100564.41;;;20.75;59.22
74680;BME280;63211;48.548;2.704;2023-08-31T07:31:01;100570.97;;;20.74;59.11
74680;BME280;63211;48.548;2.704;2023-08-31T07:33:28;100563.84;;;20.73;59.15
74680;BME280;63211;48.548;2.704;2023-08-31T07:35:55;100567.63;;;20.72;59.14
74680;BME280;63211;48.548;2.704;2023-08-31T07:38:22;100566.81;;;20.71;59.17
74680;BME280;63211;48.548;2.704;2023-08-31T07:40:50;100569.78;;;20.70;59.02
74680;BME280;63211;48.548;2.704;2023-08-31T07:43:17;100563.47;;;20.69;59.14
74680;BME280;63211;48.548;2.704;2023-08-31T07:45:44;100566.22;;;20.69;59.02
74680;BME280;63211;48.548;2.704;2023-08-31T07:48:10;100558.00;;;20.69;58.95
74680;BME280;63211;48.548;2.704;2023-08-31T07:50:37;100565.38;;;20.69;59.07
74680;BME280;63211;48.548;2.704;2023-08-31T07:53:03;100570.03;;;20.68;59.11
74680;BME280;63211;48.548;2.704;2023-08-31T07:55:30;100569.19;;;20.68;59.05
74680;BME280;63211;48.548;2.704;2023-08-31T07:57:58;100559.97;;;20.57;59.03
74680;BME280;63211;48.548;2.704;2023-08-31T08:00:25;100578.47;;;20.67;58.70
74680;BME280;63211;48.548;2.704;2023-08-31T08:02:51;100584.53;;;20.69;59.02
74680;BME280;63211;48.548;2.704;2023-08-31T08:05:18;100584.53;;;20.69;59.04
74680;BME280;63211;48.548;2.704;2023-08-31T08:07:45;100590.25;;;20.67;58.89
74680;BME280;63211;48.548;2.704;2023-08-31T08:10:12;100581.56;;;20.70;58.80
74680;BME280;63211;48.548;2.704;2023-08-31T08:12:40;100578.34;;;20.73;58.83
74680;BME280;63211;48.548;2.704;2023-08-31T08:15:10;100588.47;;;20.73;58.68
74680;BME280;63211;48.548;2.704;2023-08-31T08:17:36;100577.50;;;20.73;58.65
74680;BME280;63211;48.548;2.704;2023-08-31T08:20:06;100587.38;;;20.74;58.68
74680;BME280;63211;48.548;2.704;2023-08-31T08:22:33;100582.97;;;20.73;58.56
74680;BME280;63211;48.548;2.704;2023-08-31T08:25:01;100592.03;;;20.73;58.60
74680;BME280;63211;48.548;2.704;2023-08-31T08:27:28;100597.25;;;20.75;58.56
74680;BME280;63211;48.548;2.704;2023-08-31T08:29:54;100600.22;;;20.73;58.82
74680;BME280;63211;48.548;2.704;2023-08-31T08:32:22;100603.81;;;20.74;58.71
74680;BME280;63211;48.548;2.704;2023-08-31T08:34:50;100600.56;;;20.77;58.56
74680;BME280;63211;48.548;2.704;2023-08-31T08:37:17;100601.66;;;20.76;58.66
74680;BME280;63211;48.548;2.704;2023-08-31T08:39:48;100602.47;;;20.76;58.65
74680;BME280;63211;48.548;2.704;2023-08-31T08:42:14;100599.50;;;20.78;58.70
74680;BME280;63211;48.548;2.704;2023-08-31T08:44:43;100607.38;;;20.74;58.60
74680;BME280;63211;48.548;2.704;2023-08-31T08:47:11;100602.97;;;20.73;58.80
74680;BME280;63211;48.548;2.704;2023-08-31T08:49:39;100601.31;;;20.72;58.86
74680;BME280;63211;48.548;2.704;2023-08-31T08:52:06;100612.00;;;20.74;58.92
74680;BME280;63211;48.548;2.704;2023-08-31T08:54:32;100617.47;;;20.74;58.92
74680;BME280;63211;48.548;2.704;2023-08-31T08:57:00;100620.22;;;20.74;58.71
74680;BME280;63211;48.548;2.704;2023-08-31T08:59:29;100616.66;;;20.73;58.75
74680;BME280;63211;48.548;2.704;2023-08-31T09:01:56;100614.75;;;20.74;58.82
74680;BME280;63211;48.548;2.704;2023-08-31T09:04:23;100601.56;;;20.59;58.97
74680;BME280;63211;48.548;2.704;2023-08-31T09:06:51;100621.28;;;20.73;58.80
74680;BME280;63211;48.548;2.704;2023-08-31T09:09:18;100622.34;;;20.72;58.87
74680;BME280;63211;48.548;2.704;2023-08-31T09:11:45;100618.09;;;20.64;57.97
74680;BME280;63211;48.548;2.704;2023-08-31T09:14:15;100631.03;;;20.69;58.33
74680;BME280;63211;48.548;2.704;2023-08-31T09:16:44;100627.00;;;20.71;58.73
74680;BME280;63211;48.548;2.704;2023-08-31T09:19:18;100626.75;;;20.73;58.88
74680;BME280;63211;48.548;2.704;2023-08-31T09:21:45;100630.91;;;20.75;58.32
74680;BME280;63211;48.548;2.704;2023-08-31T09:24:14;100622.72;;;20.75;58.09
74680;BME280;63211;48.548;2.704;2023-08-31T09:26:43;100618.44;;;20.68;58.49
74680;BME280;63211;48.548;2.704;2023-08-31T09:29:10;100611.78;;;20.64;57.96
74680;BME280;63211;48.548;2.704;2023-08-31T09:31:37;100612.13;;;20.67;58.29
74680;BME280;63211;48.548;2.704;2023-08-31T09:34:03;100608.09;;;20.70;58.19
74680;BME280;63211;48.548;2.704;2023-08-31T09:36:31;100612.72;;;20.69;58.12
74680;BME280;63211;48.548;2.704;2023-08-31T09:38:58;100606.78;;;20.72;58.11
74680;BME280;63211;48.548;2.704;2023-08-31T09:41:26;100606.78;;;20.72;57.71
74680;BME280;63211;48.548;2.704;2023-08-31T09:43:53;100603.56;;;20.75;57.73
74680;BME280;63211;48.548;2.704;2023-08-31T09:46:20;100600.81;;;20.75;57.68
74680;BME280;63211;48.548;2.704;2023-08-31T09:48:47;100600.56;;;20.77;57.71
74680;BME280;63211;48.548;2.704;2023-08-31T09:51:14;100601.47;;;20.82;57.38
74680;BME280;63211;48.548;2.704;2023-08-31T09:53:48;100589.94;;;20.80;57.43
74680;BME280;63211;48.548;2.704;2023-08-31T09:56:19;100587.22;;;20.80;57.41
74680;BME280;63211;48.548;2.704;2023-08-31T09:58:48;100573.22;;;20.77;57.13
74680;BME280;63211;48.548;2.704;2023-08-31T10:01:16;100579.84;;;20.81;57.22
74680;BME280;63211;48.548;2.704;2023-08-31T10:03:43;100576.44;;;20.74;57.27
74680;BME280;63211;48.548;2.704;2023-08-31T10:06:11;100591.84;;;20.80;57.01
74680;BME280;63211;48.548;2.704;2023-08-31T10:08:38;100582.56;;;20.81;57.21
74680;BME280;63211;48.548;2.704;2023-08-31T10:11:05;100595.16;;;20.93;57.02
74680;BME280;63211;48.548;2.704;2023-08-31T10:13:33;100591.09;;;20.96;57.17
74680;BME280;63211;48.548;2.704;2023-08-31T10:16:05;100593.00;;;20.96;57.17
74680;BME280;63211;48.548;2.704;2023-08-31T10:18:34;100596.22;;;20.92;57.10
74680;BME280;63211;48.548;2.704;2023-08-31T10:21:02;100596.56;;;20.96;56.91
74680;BME280;63211;48.548;2.704;2023-08-31T10:23:29;100584.19;;;20.93;56.83
74680;BME280;63211;48.548;2.704;2023-08-31T10:26:02;100585.28;;;20.92;56.90
74680;BME280;63211;48.548;2.704;2023-08-31T10:28:39;100588.34;;;20.96;56.95
74680;BME280;63211;48.548;2.704;2023-08-31T10:31:08;100582.53;;;20.92;57.10
74680;BME280;63211;48.548;2.704;2023-08-31T10:33:37;100586.09;;;20.93;56.98
74680;BME280;63211;48.548;2.704;2023-08-31T10:36:11;100582.88;;;20.96;57.10
74680;BME280;63211;48.548;2.704;2023-08-31T10:38:38;100581.72;;;20.92;57.11
74680;BME280;63211;48.548;2.704;2023-08-31T10:41:20;100584.69;;;20.90;57.22
74680;BME280;63211;48.548;2.704;2023-08-31T10:43:51;100592.25;;;21.00;56.81
74680;BME280;63211;48.548;2.704;2023-08-31T10:46:24;100578.91;;;21.04;56.88
74680;BME280;63211;48.548;2.704;2023-08-31T10:48:53;100585.63;;;20.96;56.44
74680;BME280;63211;48.548;2.704;2023-08-31T10:51:25;100571.84;;;20.91;56.82
74680;BME280;63211;48.548;2.704;2023-08-31T10:53:52;100561.25;;;21.11;56.39
74680;BME280;63211;48.548;2.704;2023-08-31T10:56:19;100566.66;;;21.23;56.53
74680;BME280;63211;48.548;2.704;2023-08-31T10:58:57;100561.69;;;21.20;56.08
74680;BME280;63211;48.548;2.704;2023-08-31T11:01:54;100556.88;;;21.27;55.82
74680;BME280;63211;48.548;2.704;2023-08-31T11:04:22;100554.66;;;21.24;56.29
74680;BME280;63211;48.548;2.704;2023-08-31T11:06:48;100568.34;;;21.24;56.17
74680;BME280;63211;48.548;2.704;2023-08-31T11:09:19;100567.25;;;21.25;56.03
74680;BME280;63211;48.548;2.704;2023-08-31T11:11:46;100557.97;;;21.26;56.39
74680;BME280;63211;48.548;2.704;2023-08-31T11:14:14;100548.09;;;21.25;56.26
74680;BME280;63211;48.548;2.704;2023-08-31T11:16:41;100541.03;;;21.29;56.44
74680;BME280;63211;48.548;2.704;2023-08-31T11:19:09;100550.91;;;21.30;56.05
74680;BME280;63211;48.548;2.704;2023-08-31T11:21:36;100538.41;;;21.34;56.26
74680;BME280;63211;48.548;2.704;2023-08-31T11:24:04;100543.63;;;21.36;56.14
74680;BME280;63211;48.548;2.704;2023-08-31T11:26:32;100525.50;;;21.18;56.28
74680;BME280;63211;48.548;2.704;2023-08-31T11:28:59;100555.41;;;21.36;56.06
74680;BME280;63211;48.548;2.704;2023-08-31T11:31:26;100552.69;;;21.36;56.44
74680;BME280;63211;48.548;2.704;2023-08-31T11:33:54;100556.72;;;21.50;56.26
74680;BME280;63211;48.548;2.704;2023-08-31T11:36:22;100535.41;;;21.36;56.41
74680;BME280;63211;48.548;2.704;2023-08-31T11:38:51;100549.16;;;21.41;56.43
74680;BME280;63211;48.548;2.704;2023-08-31T11:41:17;100534.34;;;21.37;56.77
74680;BME280;63211;48.548;2.704;2023-08-31T11:43:44;100545.69;;;21.45;56.79
74680;BME280;63211;48.548;2.704;2023-08-31T11:46:11;100537.56;;;21.50;56.65
74680;BME280;63211;48.548;2.704;2023-08-31T11:48:38;100531.00;;;21.51;56.49
74680;BME280;63211;48.548;2.704;2023-08-31T11:51:06;100517.72;;;21.43;56.74
74680;BME280;63211;48.548;2.704;2023-08-31T11:53:34;100533.16;;;21.49;56.81
74680;BME280;63211;48.548;2.704;2023-08-31T11:56:02;100536.13;;;21.48;56.75
74680;BME280;63211;48.548;2.704;2023-08-31T11:58:28;100527.91;;;21.48;57.02
74680;BME280;63211;48.548;2.704;2023-08-31T12:00:57;100526.44;;;21.57;56.83
74680;BME280;63211;48.548;2.704;2023-08-31T12:03:24;100531.91;;;21.57;56.98
74680;BME280;63211;48.548;2.704;2023-08-31T12:05:52;100529.41;;;21.55;56.68
74680;BME280;63211;48.548;2.704;2023-08-31T12:08:24;100514.31;;;21.53;56.92
74680;BME280;63211;48.548;2.704;2023-08-31T12:10:52;100529.22;;;21.62;57.01
74680;BME280;63211;48.548;2.704;2023-08-31T12:13:19;100533.31;;;21.59;56.90
74680;BME280;63211;48.548;2.704;2023-08-31T12:15:47;100524.53;;;21.57;57.09
74680;BME280;63211;48.548;2.704;2023-08-31T12:18:18;100520.13;;;21.56;57.12
74680;BME280;63211;48.548;2.704;2023-08-31T12:20:45;100505.00;;;21.54;57.29
74680;BME280;63211;48.548;2.704;2023-08-31T12:23:12;100527.66;;;21.66;56.40
74680;BME280;63211;48.548;2.704;2023-08-31T12:25:45;100526.31;;;21.69;56.58
74680;BME280;63211;48.548;2.704;2023-08-31T12:28:13;100519.50;;;21.71;55.84
74680;BME280;63211;48.548;2.704;2023-08-31T12:30:41;100520.00;;;21.68;55.94
74680;BME280;63211;48.548;2.704;2023-08-31T12:33:09;100512.22;;;21.60;56.40
74680;BME280;63211;48.548;2.704;2023-08-31T12:35:36;100517.50;;;21.67;56.45
74680;BME280;63211;48.548;2.704;2023-08-31T12:38:03;100516.19;;;21.69;55.90
74680;BME280;63211;48.548;2.704;2023-08-31T12:40:30;100509.53;;;21.65;56.44
74680;BME280;63211;48.548;2.704;2023-08-31T12:42:57;100515.84;;;21.66;56.33
74680;BME280;63211;48.548;2.704;2023-08-31T12:45:24;100517.75;;;21.65;56.35
74680;BME280;63211;48.548;2.704;2023-08-31T12:47:51;100509.22;;;21.61;56.17
74680;BME280;63211;48.548;2.704;2023-08-31T12:50:18;100514.97;;;21.60;56.15
74680;BME280;63211;48.548;2.704;2023-08-31T12:52:46;100515.53;;;21.62;56.53